sensor_id;sensor_type;location;lat;lon;timestamp;temperature;humidity
20345;DHT22;10330;48.816;9.278;2023-03-23T00:01:10;14.50;99.90
20345;DHT22;10330;48.816;9.278;2023-03-23T00:03:40;14.40;99.90
20345;DHT22;10330;48.816;9.278;2023-03-23T00:06:07;14.40;99.90
20345;DHT22;10330;48.816;9.278;2023-03-23T00:08:39;14.40;99.90
20345;DHT22;10330;48.816;9.278;2023-03-23T00:11:21;14.30;99.90
20345;DHT22;10330;48.816;9.278;2023-03-23T00:13:49;14.30;99.90
20345;DHT22;10330;48.816;9.278;2023-03-23T00:16:21;14.40;99.90
20345;DHT22;10330;48.816;9.278;2023-03-23T00:18:55;14.40;99.90
20345;DHT22;10330;48.816;9.278;2023-03-23T00:21:28;14.40;99.90
20345;DHT22;10330;48.816;9.278;2023-03-23T00:24:25;14.40;99.90
20345;DHT22;10330;48.816;9.278;2023-03-23T00:26:51;14.40;99.90
20345;DHT22;10330;48.816;9.278;2023-03-23T00:29:21;14.40;99.90
20345;DHT22;10330;48.816;9.278;2023-03-23T00:31:50;14.50;99.90
20345;DHT22;10330;48.816;9.278;2023-03-23T00:34:18;14.50;99.90
20345;DHT22;10330;48.816;9.278;2023-03-23T00:36:49;14.50;99.90
20345;DHT22;10330;48.816;9.278;2023-03-23T00:39:17;14.40;99.90
20345;DHT22;10330;48.816;9.278;2023-03-23T00:41:44;14.40;99.90
20345;DHT22;10330;48.816;9.278;2023-03-23T00:44:11;14.40;99.90
20345;DHT22;10330;48.816;9.278;2023-03-23T00:46:44;14.40;99.90
20345;DHT22;10330;48.816;9.278;2023-03-23T00:49:12;14.40;99.90
20345;DHT22;10330;48.816;9.278;2023-03-23T00:51:39;14.40;99.90
20345;DHT22;10330;48.816;9.278;2023-03-23T00:54:06;14.40;99.90
20345;DHT22;10330;48.816;9.278;2023-03-23T00:56:33;14.40;99.90
20345;DHT22;10330;48.816;9.278;2023-03-23T00:58:59;14.40;99.90
20345;DHT22;10330;48.816;9.278;2023-03-23T01:01:26;14.40;99.90
20345;DHT22;10330;48.816;9.278;2023-03-23T01:03:52;14.40;99.90
20345;DHT22;10330;48.816;9.278;2023-03-23T01:06:27;14.50;99.90
20345;DHT22;10330;48.816;9.278;2023-03-23T01:08:54;14.50;99.90
20345;DHT22;10330;48.816;9.278;2023-03-23T01:11:20;14.50;99.90
20345;DHT22;10330;48.816;9.278;2023-03-23T01:13:46;14.50;99.90
20345;DHT22;10330;48.816;9.278;2023-03-23T01:16:13;14.50;99.90
20345;DHT22;10330;48.816;9.278;2023-03-23T01:18:39;14.60;99.90
20345;DHT22;10330;48.816;9.278;2023-03-23T01:21:11;14.50;99.90
20345;DHT22;10330;48.816;9.278;2023-03-23T01:23:38;14.50;99.90
20345;DHT22;10330;48.816;9.278;2023-03-23T01:26:10;14.40;99.90
20345;DHT22;10330;48.816;9.278;2023-03-23T01:28:37;14.40;99.90
20345;DHT22;10330;48.816;9.278;2023-03-23T01:31:09;14.40;99.90
20345;DHT22;10330;48.816;9.278;2023-03-23T01:33:39;14.40;99.90
20345;DHT22;10330;48.816;9.278;2023-03-23T01:36:10;14.50;99.90
20345;DHT22;10330;48.816;9.278;2023-03-23T01:38:36;14.40;99.90
20345;DHT22;10330;48.816;9.278;2023-03-23T01:41:04;14.50;99.90
20345;DHT22;10330;48.816;9.278;2023-03-23T01:43:31;14.40;99.90
20345;DHT22;10330;48.816;9.278;2023-03-23T01:45:58;14.50;99.90
20345;DHT22;10330;48.816;9.278;2023-03-23T01:48:33;14.50;99.90
20345;DHT22;10330;48.816;9.278;2023-03-23T01:51:09;14.40;99.90
20345;DHT22;10330;48.816;9.278;2023-03-23T01:53:41;14.40;99.90
20345;DHT22;10330;48.816;9.278;2023-03-23T01:56:09;14.40;99.90
20345;DHT22;10330;48.816;9.278;2023-03-23T01:58:38;14.50;99.90
20345;DHT22;10330;48.816;9.278;2023-03-23T02:01:09;14.40;99.90
20345;DHT22;10330;48.816;9.278;2023-03-23T02:03:40;14.50;99.90
20345;DHT22;10330;48.816;9.278;2023-03-23T02:06:08;14.60;99.90
20345;DHT22;10330;48.816;9.278;2023-03-23T02:09:03;14.50;99.90
20345;DHT22;10330;48.816;9.278;2023-03-23T02:11:32;14.50;99.90
20345;DHT22;10330;48.816;9.278;2023-03-23T02:13:59;14.50;99.90
20345;DHT22;10330;48.816;9.278;2023-03-23T02:17:21;14.40;99.90
20345;DHT22;10330;48.816;9.278;2023-03-23T02:35:46;14.30;99.90
20345;DHT22;10330;48.816;9.278;2023-03-23T02:38:24;14.30;99.90
20345;DHT22;10330;48.816;9.278;2023-03-23T02:40:54;14.40;99.90
20345;DHT22;10330;48.816;9.278;2023-03-23T02:43:23;14.40;99.90
20345;DHT22;10330;48.816;9.278;2023-03-23T02:45:52;14.30;99.90
20345;DHT22;10330;48.816;9.278;2023-03-23T02:48:22;14.40;99.90
20345;DHT22;10330;48.816;9.278;2023-03-23T02:50:52;14.40;99.90
20345;DHT22;10330;48.816;9.278;2023-03-23T02:53:22;14.40;99.90
20345;DHT22;10330;48.816;9.278;2023-03-23T02:55:52;14.40;99.90
20345;DHT22;10330;48.816;9.278;2023-03-23T02:58:21;14.30;99.90
20345;DHT22;10330;48.816;9.278;2023-03-23T03:00:49;14.30;99.90
20345;DHT22;10330;48.816;9.278;2023-03-23T03:03:20;14.30;99.90
20345;DHT22;10330;48.816;9.278;2023-03-23T03:08:30;14.30;99.90
20345;DHT22;10330;48.816;9.278;2023-03-23T03:11:11;14.30;99.90
20345;DHT22;10330;48.816;9.278;2023-03-23T03:13:53;14.30;99.90
20345;DHT22;10330;48.816;9.278;2023-03-23T03:19:13;14.30;99.90
20345;DHT22;10330;48.816;9.278;2023-03-23T03:21:43;14.50;99.90
20345;DHT22;10330;48.816;9.278;2023-03-23T03:24:13;14.60;99.90
20345;DHT22;10330;48.816;9.278;2023-03-23T03:26:44;14.60;99.90
20345;DHT22;10330;48.816;9.278;2023-03-23T03:29:24;14.60;99.90
20345;DHT22;10330;48.816;9.278;2023-03-23T03:31:55;14.80;99.90
20345;DHT22;10330;48.816;9.278;2023-03-23T03:34:25;14.90;99.90
20345;DHT22;10330;48.816;9.278;2023-03-23T03:36:54;14.90;99.90
20345;DHT22;10330;48.816;9.278;2023-03-23T03:39:26;14.90;99.90
20345;DHT22;10330;48.816;9.278;2023-03-23T03:41:53;14.90;99.90
20345;DHT22;10330;48.816;9.278;2023-03-23T03:44:20;14.90;99.90
20345;DHT22;10330;48.816;9.278;2023-03-23T03:46:46;14.90;99.90
20345;DHT22;10330;48.816;9.278;2023-03-23T03:49:13;14.80;99.90
20345;DHT22;10330;48.816;9.278;2023-03-23T03:51:41;14.70;99.90
20345;DHT22;10330;48.816;9.278;2023-03-23T03:54:14;14.70;99.90
20345;DHT22;10330;48.816;9.278;2023-03-23T03:56:41;14.60;99.90
20345;DHT22;10330;48.816;9.278;2023-03-23T03:59:33;14.60;99.90
20345;DHT22;10330;48.816;9.278;2023-03-23T04:02:20;14.60;99.90
20345;DHT22;10330;48.816;9.278;2023-03-23T04:04:49;14.50;99.90
20345;DHT22;10330;48.816;9.278;2023-03-23T04:07:17;14.50;99.90
20345;DHT22;10330;48.816;9.278;2023-03-23T04:09:44;14.50;99.90
20345;DHT22;10330;48.816;9.278;2023-03-23T04:12:13;14.50;99.90
20345;DHT22;10330;48.816;9.278;2023-03-23T04:14:54;14.40;99.90
20345;DHT22;10330;48.816;9.278;2023-03-23T04:17:22;14.40;99.90
20345;DHT22;10330;48.816;9.278;2023-03-23T04:19:48;14.40;99.90
20345;DHT22;10330;48.816;9.278;2023-03-23T04:22:15;14.50;99.90
20345;DHT22;10330;48.816;9.278;2023-03-23T04:24:43;14.50;99.90
20345;DHT22;10330;48.816;9.278;2023-03-23T04:27:14;14.50;99.90
20345;DHT22;10330;48.816;9.278;2023-03-23T04:29:41;14.50;99.90
20345;DHT22;10330;48.816;9.278;2023-03-23T04:32:30;14.50;99.90
20345;DHT22;10330;48.816;9.278;2023-03-23T04:34:57;14.50;99.90
20345;DHT22;10330;48.816;9.278;2023-03-23T04:37:29;14.50;99.90
20345;DHT22;10330;48.816;9.278;2023-03-23T04:39:57;14.50;99.90
20345;DHT22;10330;48.816;9.278;2023-03-23T04:42:29;14.50;99.90
20345;DHT22;10330;48.816;9.278;2023-03-23T04:45:16;14.40;99.90
20345;DHT22;10330;48.816;9.278;2023-03-23T04:47:49;14.50;99.90
20345;DHT22;10330;48.816;9.278;2023-03-23T04:50:31;14.40;99.90
20345;DHT22;10330;48.816;9.278;2023-03-23T04:53:05;14.40;99.90
20345;DHT22;10330;48.816;9.278;2023-03-23T04:55:33;14.40;99.90
20345;DHT22;10330;48.816;9.278;2023-03-23T04:58:04;14.50;99.90
20345;DHT22;10330;48.816;9.278;2023-03-23T05:00:38;14.50;99.90
20345;DHT22;10330;48.816;9.278;2023-03-23T05:03:04;14.50;99.90
20345;DHT22;10330;48.816;9.278;2023-03-23T05:05:34;14.50;99.90
20345;DHT22;10330;48.816;9.278;2023-03-23T05:08:05;14.40;99.90
20345;DHT22;10330;48.816;9.278;2023-03-23T05:10:35;14.50;99.90
20345;DHT22;10330;48.816;9.278;2023-03-23T05:13:07;14.50;99.90
20345;DHT22;10330;48.816;9.278;2023-03-23T05:15:33;14.40;99.90
20345;DHT22;10330;48.816;9.278;2023-03-23T05:18:01;14.40;99.90
20345;DHT22;10330;48.816;9.278;2023-03-23T05:20:29;14.40;99.90
20345;DHT22;10330;48.816;9.278;2023-03-23T05:23:01;14.40;99.90
20345;DHT22;10330;48.816;9.278;2023-03-23T05:25:32;14.40;99.90
20345;DHT22;10330;48.816;9.278;2023-03-23T05:28:08;14.40;99.90
20345;DHT22;10330;48.816;9.278;2023-03-23T05:30:56;14.30;99.90
20345;DHT22;10330;48.816;9.278;2023-03-23T05:33:27;14.30;99.90
20345;DHT22;10330;48.816;9.278;2023-03-23T05:35:59;14.30;99.90
20345;DHT22;10330;48.816;9.278;2023-03-23T05:38:31;14.40;99.90
20345;DHT22;10330;48.816;9.278;2023-03-23T05:40:59;14.30;99.90
20345;DHT22;10330;48.816;9.278;2023-03-23T05:43:30;14.30;99.90
20345;DHT22;10330;48.816;9.278;2023-03-23T05:46:08;14.30;99.90
20345;DHT22;10330;48.816;9.278;2023-03-23T05:48:36;14.40;99.90
20345;DHT22;10330;48.816;9.278;2023-03-23T05:51:03;14.40;99.90
20345;DHT22;10330;48.816;9.278;2023-03-23T05:53:32;14.30;99.90
20345;DHT22;10330;48.816;9.278;2023-03-23T05:56:00;14.30;99.90
20345;DHT22;10330;48.816;9.278;2023-03-23T05:58:49;14.30;99.90
20345;DHT22;10330;48.816;9.278;2023-03-23T06:01:15;14.40;99.90
20345;DHT22;10330;48.816;9.278;2023-03-23T06:03:42;14.40;99.90
20345;DHT22;10330;48.816;9.278;2023-03-23T06:06:22;14.40;99.90
20345;DHT22;10330;48.816;9.278;2023-03-23T06:08:53;14.40;99.90
20345;DHT22;10330;48.816;9.278;2023-03-23T06:11:29;14.30;99.90
20345;DHT22;10330;48.816;9.278;2023-03-23T06:14:13;14.40;99.90
20345;DHT22;10330;48.816;9.278;2023-03-23T06:16:40;14.40;99.90
20345;DHT22;10330;48.816;9.278;2023-03-23T06:19:10;14.50;99.90
20345;DHT22;10330;48.816;9.278;2023-03-23T06:21:42;14.40;99.90
20345;DHT22;10330;48.816;9.278;2023-03-23T06:24:18;14.40;99.90
20345;DHT22;10330;48.816;9.278;2023-03-23T06:26:44;14.40;99.90
20345;DHT22;10330;48.816;9.278;2023-03-23T06:29:16;14.50;99.90
20345;DHT22;10330;48.816;9.278;2023-03-23T06:31:51;14.50;99.90
20345;DHT22;10330;48.816;9.278;2023-03-23T06:34:20;14.40;99.90
20345;DHT22;10330;48.816;9.278;2023-03-23T06:37:05;14.40;99.90
20345;DHT22;10330;48.816;9.278;2023-03-23T06:39:54;14.50;99.90
20345;DHT22;10330;48.816;9.278;2023-03-23T06:42:28;14.40;99.90
20345;DHT22;10330;48.816;9.278;2023-03-23T06:45:14;14.50;99.90
20345;DHT22;10330;48.816;9.278;2023-03-23T06:47:42;14.50;99.90
20345;DHT22;10330;48.816;9.278;2023-03-23T06:50:09;14.50;99.90
20345;DHT22;10330;48.816;9.278;2023-03-23T06:52:36;14.50;99.90
20345;DHT22;10330;48.816;9.278;2023-03-23T06:55:03;14.60;99.90
20345;DHT22;10330;48.816;9.278;2023-03-23T06:57:29;14.60;99.90
20345;DHT22;10330;48.816;9.278;2023-03-23T06:59:56;14.70;99.90
20345;DHT22;10330;48.816;9.278;2023-03-23T07:02:24;14.80;99.90
20345;DHT22;10330;48.816;9.278;2023-03-23T07:04:52;14.90;99.90
20345;DHT22;10330;48.816;9.278;2023-03-23T07:07:22;14.90;99.90
20345;DHT22;10330;48.816;9.278;2023-03-23T07:09:53;15.00;99.90
20345;DHT22;10330;48.816;9.278;2023-03-23T07:12:22;15.00;99.90
20345;DHT22;10330;48.816;9.278;2023-03-23T07:14:50;15.00;99.90
20345;DHT22;10330;48.816;9.278;2023-03-23T07:17:17;15.10;99.90
20345;DHT22;10330;48.816;9.278;2023-03-23T07:20:05;15.10;99.90
20345;DHT22;10330;48.816;9.278;2023-03-23T07:22:32;15.10;99.90
20345;DHT22;10330;48.816;9.278;2023-03-23T07:25:07;15.10;99.90
20345;DHT22;10330;48.816;9.278;2023-03-23T07:27:49;15.10;99.90
20345;DHT22;10330;48.816;9.278;2023-03-23T07:30:16;15.00;99.90
20345;DHT22;10330;48.816;9.278;2023-03-23T07:32:43;15.00;99.90
20345;DHT22;10330;48.816;9.278;2023-03-23T07:35:09;15.00;99.90
20345;DHT22;10330;48.816;9.278;2023-03-23T07:37:56;14.90;99.90
20345;DHT22;10330;48.816;9.278;2023-03-23T07:40:23;14.90;99.90
20345;DHT22;10330;48.816;9.278;2023-03-23T07:42:56;14.90;99.90
20345;DHT22;10330;48.816;9.278;2023-03-23T07:45:33;14.90;99.90
20345;DHT22;10330;48.816;9.278;2023-03-23T07:48:00;14.90;99.90
20345;DHT22;10330;48.816;9.278;2023-03-23T07:50:26;15.00;99.90
20345;DHT22;10330;48.816;9.278;2023-03-23T07:52:56;15.00;99.90
20345;DHT22;10330;48.816;9.278;2023-03-23T07:55:25;15.10;99.90
20345;DHT22;10330;48.816;9.278;2023-03-23T07:58:22;15.20;99.90
20345;DHT22;10330;48.816;9.278;2023-03-23T08:00:58;15.40;99.90
20345;DHT22;10330;48.816;9.278;2023-03-23T08:03:28;15.60;99.90
20345;DHT22;10330;48.816;9.278;2023-03-23T08:06:12;15.60;99.90
20345;DHT22;10330;48.816;9.278;2023-03-23T08:08:44;15.70;99.90
20345;DHT22;10330;48.816;9.278;2023-03-23T08:11:40;15.80;99.90
20345;DHT22;10330;48.816;9.278;2023-03-23T08:14:26;15.90;99.90
20345;DHT22;10330;48.816;9.278;2023-03-23T08:17:17;15.90;99.90
20345;DHT22;10330;48.816;9.278;2023-03-23T08:20:03;15.90;99.90
20345;DHT22;10330;48.816;9.278;2023-03-23T08:22:55;15.90;99.90
20345;DHT22;10330;48.816;9.278;2023-03-23T08:25:42;15.90;99.90
20345;DHT22;10330;48.816;9.278;2023-03-23T08:28:18;15.90;99.90
20345;DHT22;10330;48.816;9.278;2023-03-23T08:31:16;15.90;99.90
20345;DHT22;10330;48.816;9.278;2023-03-23T08:33:51;16.00;99.90
20345;DHT22;10330;48.816;9.278;2023-03-23T08:36:23;16.00;99.90
20345;DHT22;10330;48.816;9.278;2023-03-23T08:39:13;15.90;99.90
20345;DHT22;10330;48.816;9.278;2023-03-23T08:41:59;15.80;99.90
20345;DHT22;10330;48.816;9.278;2023-03-23T08:44:55;15.90;99.90
20345;DHT22;10330;48.816;9.278;2023-03-23T08:47:27;16.00;99.90
20345;DHT22;10330;48.816;9.278;2023-03-23T08:50:07;16.00;99.90
20345;DHT22;10330;48.816;9.278;2023-03-23T08:52:50;15.90;99.90
20345;DHT22;10330;48.816;9.278;2023-03-23T08:55:31;15.80;99.90
20345;DHT22;10330;48.816;9.278;2023-03-23T08:58:14;15.80;99.90
20345;DHT22;10330;48.816;9.278;2023-03-23T09:01:01;15.80;99.90
20345;DHT22;10330;48.816;9.278;2023-03-23T09:03:48;15.70;99.90
20345;DHT22;10330;48.816;9.278;2023-03-23T09:06:26;15.80;99.90
20345;DHT22;10330;48.816;9.278;2023-03-23T09:08:56;15.80;99.90
20345;DHT22;10330;48.816;9.278;2023-03-23T09:11:22;15.80;99.90
20345;DHT22;10330;48.816;9.278;2023-03-23T09:13:49;15.70;99.90
20345;DHT22;10330;48.816;9.278;2023-03-23T09:16:15;15.70;99.90
20345;DHT22;10330;48.816;9.278;2023-03-23T09:18:41;15.90;99.90
20345;DHT22;10330;48.816;9.278;2023-03-23T09:21:08;16.00;99.90
20345;DHT22;10330;48.816;9.278;2023-03-23T09:23:37;16.00;99.90
20345;DHT22;10330;48.816;9.278;2023-03-23T09:26:04;16.10;99.90
20345;DHT22;10330;48.816;9.278;2023-03-23T09:28:32;16.30;99.90
20345;DHT22;10330;48.816;9.278;2023-03-23T09:30:58;16.40;99.90
20345;DHT22;10330;48.816;9.278;2023-03-23T09:33:27;16.50;99.90
20345;DHT22;10330;48.816;9.278;2023-03-23T09:35:58;16.50;99.90
20345;DHT22;10330;48.816;9.278;2023-03-23T09:38:25;16.40;99.90
20345;DHT22;10330;48.816;9.278;2023-03-23T09:43:51;16.40;99.90
20345;DHT22;10330;48.816;9.278;2023-03-23T09:46:27;16.50;99.90
20345;DHT22;10330;48.816;9.278;2023-03-23T09:49:38;16.50;99.90
20345;DHT22;10330;48.816;9.278;2023-03-23T09:51:59;16.40;99.90
20345;DHT22;10330;48.816;9.278;2023-03-23T09:54:33;16.40;99.90
20345;DHT22;10330;48.816;9.278;2023-03-23T09:57:00;16.20;99.90
20345;DHT22;10330;48.816;9.278;2023-03-23T09:59:35;16.10;99.90
20345;DHT22;10330;48.816;9.278;2023-03-23T10:02:17;16.10;99.90
20345;DHT22;10330;48.816;9.278;2023-03-23T10:04:48;16.10;99.90
20345;DHT22;10330;48.816;9.278;2023-03-23T10:07:17;16.20;99.90
20345;DHT22;10330;48.816;9.278;2023-03-23T10:09:50;16.30;99.90
20345;DHT22;10330;48.816;9.278;2023-03-23T10:12:42;16.40;99.90
20345;DHT22;10330;48.816;9.278;2023-03-23T10:15:21;16.50;99.90
20345;DHT22;10330;48.816;9.278;2023-03-23T10:17:54;16.60;99.90
20345;DHT22;10330;48.816;9.278;2023-03-23T10:28:44;16.50;99.90
20345;DHT22;10330;48.816;9.278;2023-03-23T10:31:18;16.60;99.90
20345;DHT22;10330;48.816;9.278;2023-03-23T10:33:48;16.60;99.90
20345;DHT22;10330;48.816;9.278;2023-03-23T10:39:12;16.70;99.90
20345;DHT22;10330;48.816;9.278;2023-03-23T10:41:40;16.80;99.90
20345;DHT22;10330;48.816;9.278;2023-03-23T10:44:18;16.80;99.90
20345;DHT22;10330;48.816;9.278;2023-03-23T10:49:32;16.70;99.90
20345;DHT22;10330;48.816;9.278;2023-03-23T10:54:56;16.60;99.90
20345;DHT22;10330;48.816;9.278;2023-03-23T10:57:26;16.50;99.90
20345;DHT22;10330;48.816;9.278;2023-03-23T11:00:05;16.50;99.90
20345;DHT22;10330;48.816;9.278;2023-03-23T11:02:43;16.50;99.90
20345;DHT22;10330;48.816;9.278;2023-03-23T11:05:37;16.60;99.90
20345;DHT22;10330;48.816;9.278;2023-03-23T11:08:13;16.80;99.90
20345;DHT22;10330;48.816;9.278;2023-03-23T11:10:47;16.80;99.90
20345;DHT22;10330;48.816;9.278;2023-03-23T11:13:17;16.90;99.90
20345;DHT22;10330;48.816;9.278;2023-03-23T11:15:44;17.00;99.90
20345;DHT22;10330;48.816;9.278;2023-03-23T11:18:23;16.90;99.90
20345;DHT22;10330;48.816;9.278;2023-03-23T11:20:59;16.80;99.90
20345;DHT22;10330;48.816;9.278;2023-03-23T11:25:57;16.90;99.90
20345;DHT22;10330;48.816;9.278;2023-03-23T11:28:37;16.80;99.90
20345;DHT22;10330;48.816;9.278;2023-03-23T11:31:05;16.80;99.90
20345;DHT22;10330;48.816;9.278;2023-03-23T11:33:40;16.80;99.90
20345;DHT22;10330;48.816;9.278;2023-03-23T11:36:07;16.80;99.90
20345;DHT22;10330;48.816;9.278;2023-03-23T11:38:34;16.80;99.90
20345;DHT22;10330;48.816;9.278;2023-03-23T11:41:01;16.80;99.90
20345;DHT22;10330;48.816;9.278;2023-03-23T11:43:27;16.80;99.90
20345;DHT22;10330;48.816;9.278;2023-03-23T11:48:40;16.80;99.90
20345;DHT22;10330;48.816;9.278;2023-03-23T11:51:20;16.80;99.90
20345;DHT22;10330;48.816;9.278;2023-03-23T11:54:04;16.90;99.90
20345;DHT22;10330;48.816;9.278;2023-03-23T11:56:38;16.90;99.90
20345;DHT22;10330;48.816;9.278;2023-03-23T11:59:14;16.90;99.90
20345;DHT22;10330;48.816;9.278;2023-03-23T12:05:14;17.00;99.90
20345;DHT22;10330;48.816;9.278;2023-03-23T12:16:00;17.10;99.90
20345;DHT22;10330;48.816;9.278;2023-03-23T12:26:53;17.40;99.90
20345;DHT22;10330;48.816;9.278;2023-03-23T12:43:26;17.40;99.90
20345;DHT22;10330;48.816;9.278;2023-03-23T12:48:48;17.50;99.90
20345;DHT22;10330;48.816;9.278;2023-03-23T12:54:36;17.70;99.90
20345;DHT22;10330;48.816;9.278;2023-03-23T12:57:24;17.60;99.90
20345;DHT22;10330;48.816;9.278;2023-03-23T13:00:14;17.60;99.90
20345;DHT22;10330;48.816;9.278;2023-03-23T13:03:11;17.70;99.90
20345;DHT22;10330;48.816;9.278;2023-03-23T13:05:49;17.70;99.90
20345;DHT22;10330;48.816;9.278;2023-03-23T13:08:31;17.60;99.90
20345;DHT22;10330;48.816;9.278;2023-03-23T13:11:25;17.50;99.90
20345;DHT22;10330;48.816;9.278;2023-03-23T13:22:35;17.50;99.90
20345;DHT22;10330;48.816;9.278;2023-03-23T13:25:10;17.60;99.90
20345;DHT22;10330;48.816;9.278;2023-03-23T13:27:39;17.70;99.90
20345;DHT22;10330;48.816;9.278;2023-03-23T13:30:22;17.90;99.90
20345;DHT22;10330;48.816;9.278;2023-03-23T13:32:51;18.20;99.90
20345;DHT22;10330;48.816;9.278;2023-03-23T13:35:21;18.30;99.90
20345;DHT22;10330;48.816;9.278;2023-03-23T13:37:51;18.40;99.90
20345;DHT22;10330;48.816;9.278;2023-03-23T13:40:26;18.50;99.90
20345;DHT22;10330;48.816;9.278;2023-03-23T13:42:56;18.60;99.90
20345;DHT22;10330;48.816;9.278;2023-03-23T13:48:19;18.70;99.90
20345;DHT22;10330;48.816;9.278;2023-03-23T13:50:54;18.70;99.90
20345;DHT22;10330;48.816;9.278;2023-03-23T13:53:31;18.60;99.90
20345;DHT22;10330;48.816;9.278;2023-03-23T13:58:51;18.50;99.90
20345;DHT22;10330;48.816;9.278;2023-03-23T14:01:34;18.40;99.90
20345;DHT22;10330;48.816;9.278;2023-03-23T14:04:06;18.20;99.90
20345;DHT22;10330;48.816;9.278;2023-03-23T14:06:37;18.10;99.90
20345;DHT22;10330;48.816;9.278;2023-03-23T14:09:16;18.10;99.90
20345;DHT22;10330;48.816;9.278;2023-03-23T14:11:58;18.00;99.90
20345;DHT22;10330;48.816;9.278;2023-03-23T14:14:39;17.90;99.90
20345;DHT22;10330;48.816;9.278;2023-03-23T14:17:24;17.80;99.90
20345;DHT22;10330;48.816;9.278;2023-03-23T14:19:53;17.70;99.90
20345;DHT22;10330;48.816;9.278;2023-03-23T14:22:37;17.50;99.90
20345;DHT22;10330;48.816;9.278;2023-03-23T14:25:18;17.50;99.90
20345;DHT22;10330;48.816;9.278;2023-03-23T14:27:47;17.50;99.90
20345;DHT22;10330;48.816;9.278;2023-03-23T14:30:19;17.60;99.90
20345;DHT22;10330;48.816;9.278;2023-03-23T14:32:47;17.70;99.90
20345;DHT22;10330;48.816;9.278;2023-03-23T14:35:28;17.70;99.90
20345;DHT22;10330;48.816;9.278;2023-03-23T14:37:55;17.80;99.90
20345;DHT22;10330;48.816;9.278;2023-03-23T14:40:27;17.70;99.90
20345;DHT22;10330;48.816;9.278;2023-03-23T14:42:57;17.70;99.90
20345;DHT22;10330;48.816;9.278;2023-03-23T14:45:25;17.80;99.90
20345;DHT22;10330;48.816;9.278;2023-03-23T14:47:56;17.70;99.90
20345;DHT22;10330;48.816;9.278;2023-03-23T14:50:39;17.60;99.90
20345;DHT22;10330;48.816;9.278;2023-03-23T14:53:30;17.60;99.90
20345;DHT22;10330;48.816;9.278;2023-03-23T14:56:03;17.70;99.90
20345;DHT22;10330;48.816;9.278;2023-03-23T14:58:30;17.80;99.90
20345;DHT22;10330;48.816;9.278;2023-03-23T15:01:07;17.80;99.90
20345;DHT22;10330;48.816;9.278;2023-03-23T15:03:38;17.80;99.90
20345;DHT22;10330;48.816;9.278;2023-03-23T15:06:13;17.70;99.90
20345;DHT22;10330;48.816;9.278;2023-03-23T15:08:41;17.70;99.90
20345;DHT22;10330;48.816;9.278;2023-03-23T15:11:21;17.60;99.90
20345;DHT22;10330;48.816;9.278;2023-03-23T15:13:50;17.60;99.90
20345;DHT22;10330;48.816;9.278;2023-03-23T15:16:29;17.60;99.90
20345;DHT22;10330;48.816;9.278;2023-03-23T15:19:05;17.60;99.90
20345;DHT22;10330;48.816;9.278;2023-03-23T15:21:35;17.60;99.90
20345;DHT22;10330;48.816;9.278;2023-03-23T15:24:41;17.60;99.90
20345;DHT22;10330;48.816;9.278;2023-03-23T15:27:17;17.60;99.90
20345;DHT22;10330;48.816;9.278;2023-03-23T15:29:51;17.70;99.90
20345;DHT22;10330;48.816;9.278;2023-03-23T15:32:37;17.70;99.90
20345;DHT22;10330;48.816;9.278;2023-03-23T15:35:12;17.60;99.90
20345;DHT22;10330;48.816;9.278;2023-03-23T15:37:43;17.60;99.90
20345;DHT22;10330;48.816;9.278;2023-03-23T15:40:23;17.60;99.90
20345;DHT22;10330;48.816;9.278;2023-03-23T15:43:26;17.60;99.90
20345;DHT22;10330;48.816;9.278;2023-03-23T15:46:00;17.50;99.90
20345;DHT22;10330;48.816;9.278;2023-03-23T15:48:45;17.50;99.90
20345;DHT22;10330;48.816;9.278;2023-03-23T15:51:12;17.50;99.90
20345;DHT22;10330;48.816;9.278;2023-03-23T15:53:39;17.50;99.90
20345;DHT22;10330;48.816;9.278;2023-03-23T15:56:09;17.50;99.90
20345;DHT22;10330;48.816;9.278;2023-03-23T15:58:36;17.40;99.90
20345;DHT22;10330;48.816;9.278;2023-03-23T16:01:17;17.50;99.90
20345;DHT22;10330;48.816;9.278;2023-03-23T16:03:47;17.40;99.90
20345;DHT22;10330;48.816;9.278;2023-03-23T16:06:17;17.40;99.90
20345;DHT22;10330;48.816;9.278;2023-03-23T16:08:44;17.40;99.90
20345;DHT22;10330;48.816;9.278;2023-03-23T16:11:12;17.40;99.90
20345;DHT22;10330;48.816;9.278;2023-03-23T16:13:39;17.40;99.90
20345;DHT22;10330;48.816;9.278;2023-03-23T16:16:11;17.40;99.90
20345;DHT22;10330;48.816;9.278;2023-03-23T16:18:38;17.30;99.90
20345;DHT22;10330;48.816;9.278;2023-03-23T16:21:05;17.20;99.90
20345;DHT22;10330;48.816;9.278;2023-03-23T16:23:32;17.20;99.90
20345;DHT22;10330;48.816;9.278;2023-03-23T16:26:00;17.10;99.90
20345;DHT22;10330;48.816;9.278;2023-03-23T16:28:26;17.20;99.90
20345;DHT22;10330;48.816;9.278;2023-03-23T16:30:53;17.20;99.90
20345;DHT22;10330;48.816;9.278;2023-03-23T16:33:19;17.10;99.90
20345;DHT22;10330;48.816;9.278;2023-03-23T16:35:45;17.10;99.90
20345;DHT22;10330;48.816;9.278;2023-03-23T16:38:15;17.00;99.90
20345;DHT22;10330;48.816;9.278;2023-03-23T16:40:43;17.10;99.90
20345;DHT22;10330;48.816;9.278;2023-03-23T16:43:10;17.00;99.90
20345;DHT22;10330;48.816;9.278;2023-03-23T16:45:39;17.00;99.90
20345;DHT22;10330;48.816;9.278;2023-03-23T16:48:06;17.00;99.90
20345;DHT22;10330;48.816;9.278;2023-03-23T16:50:34;16.90;99.90
20345;DHT22;10330;48.816;9.278;2023-03-23T16:53:01;16.90;99.90
20345;DHT22;10330;48.816;9.278;2023-03-23T16:55:29;16.90;99.90
20345;DHT22;10330;48.816;9.278;2023-03-23T16:57:56;16.80;99.90
20345;DHT22;10330;48.816;9.278;2023-03-23T17:00:23;16.80;99.90
20345;DHT22;10330;48.816;9.278;2023-03-23T17:02:53;16.80;99.90
20345;DHT22;10330;48.816;9.278;2023-03-23T17:05:23;16.80;99.90
20345;DHT22;10330;48.816;9.278;2023-03-23T17:07:51;16.80;99.90
20345;DHT22;10330;48.816;9.278;2023-03-23T17:10:17;16.70;99.90
20345;DHT22;10330;48.816;9.278;2023-03-23T17:12:44;16.70;99.90
20345;DHT22;10330;48.816;9.278;2023-03-23T17:15:10;16.70;99.90
20345;DHT22;10330;48.816;9.278;2023-03-23T17:17:37;16.70;99.90
20345;DHT22;10330;48.816;9.278;2023-03-23T17:20:04;16.70;99.90
20345;DHT22;10330;48.816;9.278;2023-03-23T17:22:31;16.70;99.90
20345;DHT22;10330;48.816;9.278;2023-03-23T17:24:57;16.60;99.90
20345;DHT22;10330;48.816;9.278;2023-03-23T17:27:24;16.60;99.90
20345;DHT22;10330;48.816;9.278;2023-03-23T17:29:51;16.60;99.90
20345;DHT22;10330;48.816;9.278;2023-03-23T17:32:17;16.60;99.90
20345;DHT22;10330;48.816;9.278;2023-03-23T17:34:44;16.50;99.90
20345;DHT22;10330;48.816;9.278;2023-03-23T17:37:10;16.60;99.90
20345;DHT22;10330;48.816;9.278;2023-03-23T17:39:36;16.60;99.90
20345;DHT22;10330;48.816;9.278;2023-03-23T17:42:02;16.50;99.90
20345;DHT22;10330;48.816;9.278;2023-03-23T17:44:29;16.50;99.90
20345;DHT22;10330;48.816;9.278;2023-03-23T17:46:55;16.50;99.90